Aeroporto :
LOGIN :

Iscrizione | Disclaimer

   EN    FR    IT 

 










Sommario :    VFR   VFR Marginale   IFR   IFR Intensivo   IFR Molto Intensivo
Visibilità : 
Base nubi : 
>= 8 km
>= 3000ft
5 / 8 km
1000 / 3000 ft
1500m / 5 km
500 / 1000 ft
800 / 1500m
200 / 500 ft
< 800m
< 200 ft
Simboli :   Temporali  Nebbia  Neve Forte  Precipitazioni Forti  Vento > 20 kt
SIGMETs :   Varie  Temporali  Ghiacco  Turbolenza  Onda orograficha  Ceneri Vulcaniche






- Altitudine del aeroporto : 416 ft
- Codice IATA : OVD


LEAS - Asturias

ULTIMO METAR :
  • 090230Z AUTO 27008KT 9999 4100 HZ NCD 10/03 Q1028

METARs OBSOLETI :
  • 090200Z AUTO 27009KT 9999 3500 HZ NCD 10/02 Q1028
  • 090130Z AUTO 25008KT 9999 NCD 10/03 Q1027
  • 090100Z AUTO 25008KT 210V280 9999 NCD 10/04 Q1027
  • 090030Z AUTO 25009KT 9999 NCD 10/05 Q1027
  • 090000Z AUTO 26009KT 9999 NCD 10/05 Q1027

TAF TAF LEAS
Valido dal 09 a 03 ore il 10 a 03 ore UTC


090200Z 0903/1003 26010KT 9999 BKN030 TX13/0914Z TN05/1003Z
PROB30
TEMPO 0903/0908 26015G25KT
BECMG 0915/0918 20005KT



MetMap, La meteo Aeronautica in un colpo d'occhio ! - Copyright ORBIFLY Dicembre 2007 - Disclaimer

ORBIFLY MET'MAP TEAM :

Programmazione e sviluppo : Alexandra Zaïnal
Concezione : Baudouin d'Aumeries
Aiuto per la programmazione : Marc-Olivier Méhu
Supporto tecnico e logistico : Manuel Goepfert
Aiuto per la traduzione : Arnaldo La Scala

Contatto : metmap@orbifly.com




FONTI E CREDITI :

   NOAA